Time;durP1;ratioP1;P1;durP2;ratioP2;P2;SDS_P1;SDS_P2;PMS_P1;PMS_P2;Temp;Humidity;BMP_temperature;BMP_pressure;BME280_temperature;BME280_humidity;BME280_pressure;Samples;Min_cycle;Max_cycle;Signal;HPM_P1;HPM_P2
2022/04/12 00:01:04;;;;;;;4.72;1.77;;;2.80;99.50;;;;;;4958514;28;20463;-86
2022/04/12 00:03:30;;;;;;;8.07;1.83;;;2.70;99.90;;;;;;4958383;28;20407;-85
2022/04/12 00:05:56;;;;;;;4.20;1.40;;;2.70;99.90;;;;;;4958124;28;20037;-85
2022/04/12 00:08:22;;;;;;;2.03;0.95;;;2.70;99.90;;;;;;4958290;28;20035;-85
2022/04/12 00:10:49;;;;;;;3.13;1.10;;;2.60;99.90;;;;;;4958144;28;20121;-86
2022/04/12 00:13:17;;;;;;;3.95;1.10;;;2.70;99.90;;;;;;4958139;28;20023;-85
2022/04/12 00:15:44;;;;;;;4.13;1.00;;;2.60;99.90;;;;;;4958149;28;20057;-86
2022/04/12 00:20:54;;;;;;;2.08;0.88;;;2.60;99.90;;;;;;4975329;28;19972;-86
2022/04/12 00:23:19;;;;;;;2.08;0.60;;;2.60;99.90;;;;;;4957931;28;20050;-86
2022/04/12 00:25:45;;;;;;;;;;;2.60;99.90;;;;;;4957766;28;20125;-85
2022/04/12 00:28:12;;;;;;;2.63;1.15;;;2.50;99.90;;;;;;4957882;28;19973;-86
2022/04/12 00:30:38;;;;;;;6.30;0.93;;;2.50;99.90;;;;;;4957682;28;20030;-86
2022/04/12 00:33:04;;;;;;;3.65;1.20;;;2.50;99.90;;;;;;4957963;28;20069;-85
2022/04/12 00:35:30;;;;;;;2.15;0.80;;;2.50;99.90;;;;;;4957879;28;20487;-86
2022/04/12 00:37:56;;;;;;;2.13;1.08;;;2.50;99.90;;;;;;4957649;28;20027;-86
2022/04/12 00:40:26;;;;;;;4.15;0.90;;;2.40;99.90;;;;;;4974664;28;20042;-85
2022/04/12 00:42:53;;;;;;;1.70;0.70;;;2.40;99.90;;;;;;4974711;28;20372;-86
2022/04/12 00:45:20;;;;;;;3.03;0.90;;;2.40;99.90;;;;;;4974892;28;20062;-86
2022/04/12 00:47:46;;;;;;;2.47;1.00;;;2.40;99.90;;;;;;4957647;28;20031;-84
2022/04/12 00:50:13;;;;;;;3.28;0.70;;;2.40;99.90;;;;;;4957718;28;20465;-85
2022/04/12 00:52:49;;;;;;;3.35;1.00;;;2.40;99.90;;;;;;4949703;28;20085;-85
2022/04/12 00:55:15;;;;;;;2.40;0.90;;;2.40;99.90;;;;;;4973876;28;20037;-85
2022/04/12 00:57:42;;;;;;;4.30;0.90;;;2.40;99.90;;;;;;4974483;28;20514;-87
2022/04/12 01:00:10;;;;;;;3.45;1.33;;;2.40;99.90;;;;;;4957731;28;20057;-85
2022/04/12 01:02:36;;;;;;;2.10;0.90;;;2.30;99.90;;;;;;4973791;28;20513;-85
2022/04/12 01:05:05;;;;;;;2.33;0.73;;;2.30;99.90;;;;;;4974488;28;20026;-86
2022/04/12 01:07:32;;;;;;;7.55;1.08;;;2.30;99.90;;;;;;4974468;28;20034;-85
2022/04/12 01:09:58;;;;;;;2.40;0.70;;;2.30;99.90;;;;;;4957530;28;20126;-86
2022/04/12 01:12:27;;;;;;;2.92;0.80;;;2.30;99.90;;;;;;4956993;28;20034;-85
2022/04/12 01:14:52;;;;;;;1.85;0.70;;;2.30;99.90;;;;;;4956876;28;20411;-86
2022/04/12 01:17:18;;;;;;;2.20;0.68;;;2.30;99.90;;;;;;4974626;28;20074;-86
2022/04/12 01:19:44;;;;;;;3.65;1.33;;;2.30;99.90;;;;;;4957228;28;20438;-86
2022/04/12 01:22:15;;;;;;;5.28;1.30;;;2.30;99.90;;;;;;4957273;28;20026;-86
2022/04/12 01:24:41;;;;;;;2.17;1.10;;;2.30;99.90;;;;;;4957021;28;20403;-84
2022/04/12 01:27:07;;;;;;;;;;;2.30;99.90;;;;;;4957496;28;20027;-85
2022/04/12 01:29:35;;;;;;;5.38;1.75;;;2.30;99.90;;;;;;4957057;28;19913;-86
2022/04/12 01:32:01;;;;;;;2.92;1.20;;;2.40;99.90;;;;;;4974025;28;20522;-85
2022/04/12 01:34:28;;;;;;;6.93;1.52;;;2.40;99.90;;;;;;4974111;28;20438;-85
2022/04/12 01:36:54;;;;;;;4.18;1.77;;;2.40;99.90;;;;;;4956718;28;20080;-85
2022/04/12 01:39:20;;;;;;;5.80;0.98;;;2.50;99.90;;;;;;4956781;28;20042;-86
2022/04/12 01:41:46;;;;;;;3.45;0.82;;;2.60;99.90;;;;;;4988581;28;20027;-85
2022/04/12 01:44:12;;;;;;;2.47;0.70;;;2.50;99.90;;;;;;4973933;28;20055;-85
2022/04/12 01:46:38;;;;;;;3.15;1.10;;;2.60;99.90;;;;;;4973816;28;20034;-85
2022/04/12 01:49:03;;;;;;;;;;;2.60;99.90;;;;;;4957229;28;20063;-84
2022/04/12 01:51:29;;;;;;;4.20;0.52;;;2.60;99.90;;;;;;4956871;28;20263;-85
2022/04/12 01:53:54;;;;;;;;;;;2.60;99.90;;;;;;4956947;28;20077;-85
2022/04/12 01:56:20;;;;;;;1.40;0.40;;;2.50;99.90;;;;;;4973494;28;19906;-86
2022/04/12 01:58:46;;;;;;;;;;;2.50;99.90;;;;;;4956962;28;20027;-85
2022/04/12 02:01:11;;;;;;;1.42;0.70;;;2.50;99.90;;;;;;4973923;28;19949;-85
2022/04/12 02:03:37;;;;;;;2.88;0.80;;;2.40;99.90;;;;;;4956477;28;20019;-86
2022/04/12 02:06:02;;;;;;;1.25;0.50;;;2.40;99.90;;;;;;4956594;28;20637;-86
2022/04/12 02:08:29;;;;;;;;;;;2.40;99.90;;;;;;4960573;28;20019;-85
2022/04/12 02:10:54;;;;;;;2.20;1.10;;;2.30;99.90;;;;;;4977643;28;19969;-85
2022/04/12 02:13:20;;;;;;;2.15;0.47;;;2.40;99.90;;;;;;4960424;28;20060;-85
2022/04/12 02:15:45;;;;;;;2.17;0.55;;;2.50;99.90;;;;;;4977346;28;20117;-85
2022/04/12 02:18:11;;;;;;;;;;;2.60;99.90;;;;;;4959175;28;20070;-85
2022/04/12 02:20:37;;;;;;;3.78;0.88;;;2.60;99.70;;;;;;4959353;28;19961;-85
2022/04/12 02:23:02;;;;;;;3.88;0.82;;;2.60;99.90;;;;;;4977664;28;20046;-85
2022/04/12 02:25:28;;;;;;;;;;;2.50;99.90;;;;;;4960313;28;20469;-85
2022/04/12 02:27:54;;;;;;;3.85;1.15;;;2.40;99.90;;;;;;4960024;28;19937;-85
2022/04/12 02:30:21;;;;;;;2.88;0.82;;;2.40;99.90;;;;;;4977246;28;20034;-85
2022/04/12 02:32:47;;;;;;;3.28;1.23;;;2.30;99.90;;;;;;4959876;28;20097;-85
2022/04/12 02:35:12;;;;;;;3.28;1.35;;;2.30;99.90;;;;;;4960262;28;20554;-85
2022/04/12 02:37:38;;;;;;;3.15;1.10;;;2.40;99.90;;;;;;4959925;28;20558;-85
2022/04/12 02:40:04;;;;;;;;;;;2.30;99.90;;;;;;4977488;28;20526;-85
2022/04/12 02:42:30;;;;;;;1.27;0.60;;;2.40;99.90;;;;;;4959788;28;19965;-85
2022/04/12 02:44:55;;;;;;;1.50;0.50;;;2.40;99.90;;;;;;4959649;28;20046;-85
2022/04/12 02:47:25;;;;;;;2.35;0.65;;;2.50;99.70;;;;;;4959721;28;20038;-85
2022/04/12 02:49:55;;;;;;;1.77;0.52;;;2.50;99.80;;;;;;4976215;28;20027;-84
2022/04/12 02:52:20;;;;;;;2.25;0.88;;;2.50;99.80;;;;;;4976707;28;20575;-83
2022/04/12 02:54:46;;;;;;;;;;;2.50;99.80;;;;;;4959830;28;20114;-85
2022/04/12 02:57:12;;;;;;;3.88;0.88;;;2.50;99.70;;;;;;4978749;28;20318;-85
2022/04/12 02:59:37;;;;;;;2.38;0.50;;;2.50;99.60;;;;;;4959510;28;20081;-84
2022/04/12 03:02:03;;;;;;;;;;;2.60;99.90;;;;;;4959912;28;20069;-85
2022/04/12 03:04:29;;;;;;;2.25;0.65;;;2.60;99.90;;;;;;4976740;28;20357;-86
2022/04/12 03:06:54;;;;;;;1.88;0.50;;;2.50;99.70;;;;;;4958960;28;20022;-85
2022/04/12 03:09:20;;;;;;;1.42;0.43;;;2.50;99.40;;;;;;4959358;28;20035;-85
2022/04/12 03:11:46;;;;;;;;;;;2.50;99.90;;;;;;4959506;28;20022;-86
2022/04/12 03:14:11;;;;;;;4.80;1.00;;;2.50;99.90;;;;;;4958857;28;19913;-85
2022/04/12 03:16:37;;;;;;;;;;;2.40;99.90;;;;;;4959247;28;20031;-85
2022/04/12 03:19:02;;;;;;;1.52;0.70;;;2.40;99.90;;;;;;4975056;28;19922;-85
2022/04/12 03:21:28;;;;;;;4.10;0.82;;;2.30;99.90;;;;;;4981129;28;20518;-85
2022/04/12 03:23:54;;;;;;;2.60;0.93;;;2.20;99.90;;;;;;4976135;28;20089;-85
2022/04/12 03:26:19;;;;;;;;;;;2.20;99.90;;;;;;4959343;28;20065;-85
2022/04/12 03:28:45;;;;;;;2.63;1.02;;;2.20;99.90;;;;;;4958630;28;20374;-85
2022/04/12 03:31:11;;;;;;;;;;;2.20;99.90;;;;;;4976564;28;20423;-84
2022/04/12 03:33:36;;;;;;;3.25;1.17;;;2.30;99.90;;;;;;4959025;28;19914;-85
2022/04/12 03:36:02;;;;;;;;;;;2.50;99.90;;;;;;4959095;28;20109;-85
2022/04/12 03:38:28;;;;;;;5.70;1.15;;;2.40;99.90;;;;;;4958748;28;20366;-86
2022/04/12 03:40:56;;;;;;;3.42;1.08;;;2.40;99.90;;;;;;4959310;28;20035;-85
2022/04/12 03:43:22;;;;;;;7.22;1.52;;;2.40;99.90;;;;;;4958467;28;20129;-86
2022/04/12 03:45:47;;;;;;;4.63;1.63;;;2.30;99.90;;;;;;4958550;28;20069;-85
2022/04/12 03:48:13;;;;;;;4.70;1.50;;;2.20;99.90;;;;;;4958686;28;20035;-84
2022/04/12 03:50:39;;;;;;;5.32;2.38;;;2.10;99.90;;;;;;4975501;28;20122;-84
2022/04/12 03:53:04;;;;;;;;;;;2.10;99.90;;;;;;4958826;28;20121;-85
2022/04/12 03:55:30;;;;;;;9.85;2.90;;;2.10;99.90;;;;;;4958542;28;19929;-85
2022/04/12 03:58:07;;;;;;;10.65;4.10;;;2.10;99.90;;;;;;4958119;28;20026;-85
2022/04/12 04:00:34;;;;;;;6.43;2.80;;;2.20;99.90;;;;;;4958176;28;20047;-84
2022/04/12 04:03:00;;;;;;;7.55;2.20;;;2.10;99.90;;;;;;4958292;28;20027;-85
2022/04/12 04:05:26;;;;;;;;;;;2.30;99.90;;;;;;4958421;28;20035;-85
2022/04/12 04:07:52;;;;;;;4.10;1.40;;;2.40;99.90;;;;;;4957880;28;19954;-85
2022/04/12 04:10:17;;;;;;;;;;;2.50;99.90;;;;;;4959025;28;20472;-85
2022/04/12 04:12:44;;;;;;;4.82;1.15;;;2.50;99.90;;;;;;4959175;28;20049;-84
2022/04/12 04:15:12;;;;;;;;;;;2.60;99.90;;;;;;4958540;28;20026;-84
2022/04/12 04:17:47;;;;;;;2.03;0.70;;;2.60;99.90;;;;;;4950086;28;19910;-84
2022/04/12 04:20:18;;;;;;;6.25;0.82;;;2.70;99.90;;;;;;4990344;28;20039;-84
2022/04/12 04:22:44;;;;;;;2.95;0.90;;;2.80;99.90;;;;;;4958278;28;20027;-84
2022/04/12 04:25:14;;;;;;;7.85;1.25;;;2.80;99.90;;;;;;4975418;28;20034;-84
2022/04/12 04:27:41;;;;;;;6.90;1.80;;;2.90;99.80;;;;;;4958246;28;20030;-84
2022/04/12 04:30:09;;;;;;;3.92;1.33;;;2.90;99.90;;;;;;4957881;28;20121;-85
2022/04/12 04:32:35;;;;;;;2.30;0.93;;;2.90;99.90;;;;;;4957597;28;20533;-83
2022/04/12 04:35:01;;;;;;;3.55;1.80;;;3.00;99.80;;;;;;4958089;28;20027;-84
2022/04/12 04:37:27;;;;;;;11.45;3.33;;;3.00;99.90;;;;;;4957047;28;20027;-84
2022/04/12 04:39:53;;;;;;;13.45;4.70;;;3.20;99.40;;;;;;4957367;28;20069;-84
2022/04/12 04:42:23;;;;;;;9.38;4.05;;;3.60;97.90;;;;;;4974864;28;20034;-84
2022/04/12 04:44:50;;;;;;;7.78;3.55;;;4.00;96.10;;;;;;4974509;28;20197;-84
2022/04/12 04:47:15;;;;;;;6.95;2.75;;;4.60;93.20;;;;;;4957332;28;20574;-83
2022/04/12 04:49:41;;;;;;;11.90;1.98;;;5.20;90.40;;;;;;4988170;28;20026;-84
2022/04/12 04:52:07;;;;;;;3.35;1.52;;;5.70;82.50;;;;;;4973637;28;20039;-84
2022/04/12 04:54:33;;;;;;;4.40;1.48;;;5.90;79.70;;;;;;4957139;28;20655;-84
2022/04/12 04:56:59;;;;;;;3.53;1.67;;;5.90;77.30;;;;;;4957249;28;20034;-84
2022/04/12 04:59:24;;;;;;;9.48;1.80;;;6.20;76.90;;;;;;4957077;28;20058;-83
2022/04/12 05:01:50;;;;;;;9.70;3.75;;;6.90;70.90;;;;;;4956767;28;20031;-84
2022/04/12 05:04:16;;;;;;;17.13;6.00;;;7.80;65.20;;;;;;4957590;28;20097;-85
2022/04/12 05:06:41;;;;;;;17.88;8.10;;;8.40;61.60;;;;;;4956918;28;20074;-85
2022/04/12 05:09:07;;;;;;;13.20;7.00;;;8.90;59.20;;;;;;4974306;28;20054;-85
2022/04/12 05:11:32;;;;;;;11.80;5.53;;;9.40;57.00;;;;;;4957144;28;20053;-85
2022/04/12 05:13:58;;;;;;;8.38;4.38;;;9.70;56.40;;;;;;4957080;28;20503;-85
2022/04/12 05:16:24;;;;;;;;;;;10.00;54.70;;;;;;4957635;28;20483;-86
2022/04/12 05:18:51;;;;;;;9.18;3.90;;;10.50;51.90;;;;;;4956921;28;19917;-85
2022/04/12 05:21:18;;;;;;;9.55;3.83;;;11.20;51.70;;;;;;4957029;28;20037;-86
2022/04/12 05:23:44;;;;;;;10.77;3.50;;;11.80;49.40;;;;;;4957413;28;20034;-85
2022/04/12 05:26:10;;;;;;;;;;;12.20;47.60;;;;;;4957524;28;20505;-85
2022/04/12 05:28:37;;;;;;;5.53;2.28;;;12.60;45.70;;;;;;4957281;28;19930;-85
2022/04/12 05:31:03;;;;;;;7.47;2.30;;;12.90;45.60;;;;;;4956894;28;20046;-86
2022/04/12 05:33:29;;;;;;;;;;;13.50;45.30;;;;;;4957666;28;20030;-87
2022/04/12 05:35:54;;;;;;;2.60;1.25;;;13.70;43.50;;;;;;4956942;28;20369;-86
2022/04/12 05:38:20;;;;;;;1.38;0.68;;;14.00;42.20;;;;;;4973934;28;20031;-87
2022/04/12 05:40:46;;;;;;;4.88;0.70;;;14.40;41.10;;;;;;4974161;28;20487;-87
2022/04/12 05:43:11;;;;;;;2.78;0.70;;;14.50;38.30;;;;;;4977317;28;20407;-86
2022/04/12 05:45:37;;;;;;;3.45;0.77;;;14.50;38.60;;;;;;4960369;28;20090;-86
2022/04/12 05:48:03;;;;;;;2.45;0.90;;;14.60;37.90;;;;;;4960837;28;20118;-86
2022/04/12 05:50:30;;;;;;;5.80;0.70;;;14.50;37.80;;;;;;4960651;28;20061;-86
2022/04/12 05:52:56;;;;;;;4.65;0.98;;;14.40;37.50;;;;;;4960630;28;20097;-87
2022/04/12 05:55:24;;;;;;;1.63;0.70;;;14.50;37.80;;;;;;4977958;28;20111;-87
2022/04/12 05:57:59;;;;;;;2.03;0.80;;;14.70;36.50;;;;;;4978237;28;20035;-87
2022/04/12 06:00:27;;;;;;;3.25;0.88;;;14.50;37.40;;;;;;4960603;28;20039;-87
2022/04/12 06:02:54;;;;;;;2.42;0.90;;;14.30;38.80;;;;;;4977879;28;20050;-87
2022/04/12 06:05:21;;;;;;;2.25;0.82;;;14.90;36.30;;;;;;4960656;28;20034;-87
2022/04/12 06:07:47;;;;;;;2.88;0.98;;;14.80;36.50;;;;;;4960675;28;20026;-87
2022/04/12 06:10:15;;;;;;;2.92;0.90;;;15.20;36.90;;;;;;4960800;28;20037;-88
2022/04/12 06:12:41;;;;;;;4.07;1.35;;;15.50;35.50;;;;;;4960561;28;20114;-87
2022/04/12 06:15:07;;;;;;;3.35;0.88;;;15.90;34.60;;;;;;4960405;28;20119;-87
2022/04/12 06:17:35;;;;;;;2.78;1.35;;;16.20;33.30;;;;;;4960202;28;20050;-86
2022/04/12 06:20:06;;;;;;;2.92;0.95;;;16.30;33.40;;;;;;4977291;28;20127;-88
2022/04/12 06:22:33;;;;;;;2.88;0.90;;;16.40;32.40;;;;;;4977954;28;20518;-88
2022/04/12 06:24:58;;;;;;;3.85;0.93;;;16.70;31.40;;;;;;4959983;28;20030;-87
2022/04/12 06:27:36;;;;;;;2.13;0.70;;;16.90;31.20;;;;;;4960445;28;20030;-87
2022/04/12 06:30:13;;;;;;;1.90;0.90;;;16.70;31.10;;;;;;4977345;28;20104;-87
2022/04/12 06:32:39;;;;;;;3.17;1.08;;;16.90;30.00;;;;;;4977059;28;20031;-87
2022/04/12 06:35:07;;;;;;;1.90;0.70;;;17.30;30.60;;;;;;4960010;28;20029;-87
2022/04/12 06:37:32;;;;;;;1.45;0.70;;;17.60;29.10;;;;;;4977465;28;20034;-87
2022/04/12 06:39:59;;;;;;;3.22;1.27;;;17.90;28.00;;;;;;4959854;28;20407;-87
2022/04/12 06:42:25;;;;;;;2.65;0.80;;;17.90;27.60;;;;;;4977037;28;20329;-88
2022/04/12 06:44:52;;;;;;;4.00;1.00;;;18.10;27.00;;;;;;4976835;28;20127;-88
2022/04/12 06:47:18;;;;;;;1.63;0.63;;;17.80;27.80;;;;;;4960051;28;20117;-86
2022/04/12 06:49:49;;;;;;;3.33;1.00;;;17.60;28.60;;;;;;4959937;28;20580;-88
2022/04/12 06:52:15;;;;;;;3.20;1.45;;;17.90;27.90;;;;;;4959804;28;20039;-88
2022/04/12 06:54:42;;;;;;;2.55;1.35;;;18.50;29.10;;;;;;4959627;28;20030;-86
2022/04/12 06:57:07;;;;;;;3.90;1.75;;;19.20;28.70;;;;;;4959779;28;20578;-88
2022/04/12 06:59:34;;;;;;;3.50;1.70;;;19.90;28.30;;;;;;4959759;28;20121;-88
2022/04/12 07:02:01;;;;;;;5.28;1.95;;;20.30;27.80;;;;;;4959384;28;20039;-86
2022/04/12 07:04:27;;;;;;;3.20;1.90;;;20.60;27.90;;;;;;4959799;28;20038;-86
2022/04/12 07:06:53;;;;;;;4.03;1.75;;;21.10;26.10;;;;;;4991782;28;20023;-86
2022/04/12 07:09:20;;;;;;;3.53;1.80;;;21.20;25.70;;;;;;4958798;28;20037;-87
2022/04/12 07:11:53;;;;;;;4.28;1.80;;;21.60;25.90;;;;;;4959451;28;20645;-86
2022/04/12 07:14:19;;;;;;;4.00;1.58;;;21.80;25.40;;;;;;4976935;28;20023;-86
2022/04/12 07:16:44;;;;;;;3.22;1.83;;;21.80;25.70;;;;;;4976723;28;20041;-86
2022/04/12 07:19:10;;;;;;;4.63;1.77;;;22.10;24.80;;;;;;4959523;28;20023;-86
2022/04/12 07:21:36;;;;;;;4.22;1.55;;;22.10;23.90;;;;;;4958268;28;20034;-87
2022/04/12 07:24:05;;;;;;;4.63;1.95;;;21.90;24.00;;;;;;4958890;28;20069;-87
2022/04/12 07:26:31;;;;;;;3.53;1.67;;;22.40;24.80;;;;;;4959190;28;20034;-86
2022/04/12 07:28:57;;;;;;;4.38;1.65;;;22.80;24.40;;;;;;4959233;28;20089;-87
2022/04/12 07:31:23;;;;;;;4.30;1.33;;;23.00;24.00;;;;;;4959245;28;20117;-87
2022/04/12 07:33:49;;;;;;;3.20;1.58;;;23.60;23.70;;;;;;4959001;28;20118;-87
2022/04/12 07:36:14;;;;;;;5.53;2.00;;;24.20;23.50;;;;;;4959272;28;20081;-87
2022/04/12 07:38:41;;;;;;;4.50;1.33;;;23.80;23.20;;;;;;4976427;28;20023;-87
2022/04/12 07:41:07;;;;;;;5.70;1.27;;;24.10;22.80;;;;;;4959116;28;20554;-87
2022/04/12 07:43:32;;;;;;;4.18;1.30;;;24.10;22.20;;;;;;4958969;28;20078;-86
2022/04/12 07:45:58;;;;;;;6.97;1.52;;;24.40;23.00;;;;;;4976072;28;20487;-86
2022/04/12 07:48:24;;;;;;;3.97;1.33;;;24.20;22.60;;;;;;4976089;28;20054;-86
2022/04/12 07:50:49;;;;;;;11.23;1.60;;;24.30;22.50;;;;;;4975599;28;20038;-86
2022/04/12 07:53:15;;;;;;;4.47;1.38;;;24.70;21.80;;;;;;4976046;28;20077;-87
2022/04/12 07:55:40;;;;;;;4.10;1.75;;;24.60;21.30;;;;;;4975995;28;20018;-86
2022/04/12 07:58:06;;;;;;;5.45;1.90;;;24.70;21.50;;;;;;4976337;28;20076;-87
2022/04/12 08:00:32;;;;;;;7.53;1.70;;;24.80;21.90;;;;;;4959264;28;20062;-86
2022/04/12 08:02:58;;;;;;;3.50;1.45;;;24.90;22.10;;;;;;4976004;28;20479;-86
2022/04/12 08:05:23;;;;;;;3.53;1.25;;;24.80;21.60;;;;;;4957863;28;20030;-86
2022/04/12 08:07:49;;;;;;;4.07;1.38;;;25.00;21.60;;;;;;4958489;28;20030;-86
2022/04/12 08:10:19;;;;;;;3.88;1.30;;;25.30;21.20;;;;;;4957847;28;20045;-86
2022/04/12 08:12:46;;;;;;;7.63;1.63;;;25.10;20.50;;;;;;4958707;28;20027;-86
2022/04/12 08:15:15;;;;;;;5.43;1.30;;;24.70;20.70;;;;;;4958446;28;20066;-87
2022/04/12 08:17:41;;;;;;;3.67;1.50;;;24.50;21.20;;;;;;4958000;28;20015;-86
2022/04/12 08:20:13;;;;;;;6.63;2.05;;;24.90;20.00;;;;;;4975501;28;20042;-86
2022/04/12 08:22:40;;;;;;;3.03;0.90;;;24.80;20.90;;;;;;4958044;28;20051;-86
2022/04/12 08:25:06;;;;;;;3.08;1.10;;;24.60;20.40;;;;;;4975608;28;20037;-86
2022/04/12 08:27:33;;;;;;;2.97;1.40;;;24.70;21.10;;;;;;4958509;28;20117;-86
2022/04/12 08:29:59;;;;;;;4.72;1.70;;;24.80;21.10;;;;;;4975140;28;20042;-86
2022/04/12 08:32:25;;;;;;;2.92;0.98;;;24.80;20.70;;;;;;4975278;28;20014;-86
2022/04/12 08:34:51;;;;;;;6.82;1.25;;;24.70;20.60;;;;;;4957943;28;20033;-85
2022/04/12 08:37:17;;;;;;;3.55;1.27;;;24.60;20.40;;;;;;4957889;28;20558;-86
2022/04/12 08:39:42;;;;;;;8.65;0.95;;;24.80;20.50;;;;;;4974954;28;20026;-87
2022/04/12 08:42:08;;;;;;;5.97;1.38;;;24.50;20.50;;;;;;4975134;28;20502;-86
2022/04/12 08:44:36;;;;;;;5.15;1.30;;;24.50;20.50;;;;;;4974740;28;20070;-87
2022/04/12 08:47:04;;;;;;;6.13;1.70;;;24.20;20.60;;;;;;4974706;28;20101;-87
2022/04/12 08:49:31;;;;;;;2.40;0.90;;;24.20;21.30;;;;;;4975361;28;20113;-86
2022/04/12 08:51:57;;;;;;;4.85;1.20;;;24.40;20.50;;;;;;4974860;28;20026;-86
2022/04/12 08:54:23;;;;;;;5.75;1.35;;;23.90;19.80;;;;;;4957533;28;20027;-86
2022/04/12 08:56:51;;;;;;;3.97;0.90;;;23.60;20.30;;;;;;4957089;28;20019;-86
2022/04/12 08:59:18;;;;;;;5.90;1.30;;;23.70;20.00;;;;;;4974734;28;20031;-87
2022/04/12 09:01:44;;;;;;;4.18;1.30;;;23.60;20.10;;;;;;4957481;28;20117;-86
2022/04/12 09:04:11;;;;;;;8.45;1.60;;;23.60;20.20;;;;;;4957398;28;20076;-85
2022/04/12 09:06:57;;;;;;;4.55;1.52;;;23.50;19.50;;;;;;4974558;28;20431;-86
2022/04/12 09:09:28;;;;;;;6.47;1.02;;;23.70;20.10;;;;;;4957101;28;20039;-85
2022/04/12 09:12:08;;;;;;;8.13;1.17;;;23.70;21.10;;;;;;4974444;28;20030;-85
2022/04/12 09:14:47;;;;;;;3.53;1.55;;;23.60;20.40;;;;;;4957011;28;20114;-85
2022/04/12 09:17:14;;;;;;;6.78;4.95;;;23.90;20.90;;;;;;4973109;28;20038;-85
2022/04/12 09:19:45;;;;;;;3.78;1.48;;;24.30;20.10;;;;;;4974223;28;20102;-83
2022/04/12 09:22:12;;;;;;;3.58;2.10;;;24.20;20.60;;;;;;4957202;28;20027;-86
2022/04/12 09:24:48;;;;;;;5.35;1.65;;;23.80;20.90;;;;;;4956757;28;20054;-86
2022/04/12 09:27:16;;;;;;;8.32;1.50;;;24.00;21.40;;;;;;4974259;28;20042;-86
2022/04/12 09:29:46;;;;;;;5.22;2.10;;;24.30;21.10;;;;;;4974253;28;20081;-85
2022/04/12 09:32:15;;;;;;;1.98;0.95;;;24.30;20.80;;;;;;4989145;28;20447;-85
2022/04/12 09:34:42;;;;;;;5.18;1.70;;;24.30;20.10;;;;;;4974357;28;20030;-85
2022/04/12 09:37:31;;;;;;;6.95;2.95;;;24.40;19.30;;;;;;4974065;28;20015;-85
2022/04/12 09:40:00;;;;;;;2.08;1.40;;;24.10;20.20;;;;;;4974000;28;20394;-85
2022/04/12 09:42:52;;;;;;;9.35;4.82;;;23.60;20.10;;;;;;4972930;28;20042;-85
2022/04/12 09:45:26;;;;;;;5.63;1.58;;;23.50;20.70;;;;;;4988819;28;20047;-85
2022/04/12 09:47:56;;;;;;;3.45;1.60;;;23.50;19.20;;;;;;4974098;28;20110;-87
2022/04/12 09:50:27;;;;;;;3.83;1.40;;;22.80;19.80;;;;;;4974460;28;20118;-88
2022/04/12 09:52:56;;;;;;;3.70;1.60;;;21.40;20.60;;;;;;4956898;28;20078;-87
2022/04/12 09:55:46;;;;;;;3.50;1.50;;;21.10;21.60;;;;;;4973269;28;20034;-84
2022/04/12 09:58:14;;;;;;;3.88;1.40;;;20.80;22.20;;;;;;4956749;28;20023;-88
2022/04/12 10:00:41;;;;;;;2.30;1.13;;;21.40;22.80;;;;;;4956737;28;20110;-88
2022/04/12 10:03:10;;;;;;;6.20;1.67;;;22.10;22.70;;;;;;4973957;28;20035;-87
2022/04/12 10:05:36;;;;;;;6.88;1.75;;;22.90;21.60;;;;;;4972871;28;20126;-85
2022/04/12 10:08:06;;;;;;;5.43;1.50;;;23.30;19.90;;;;;;4973697;28;20119;-85
2022/04/12 10:10:32;;;;;;;3.97;1.40;;;23.10;21.00;;;;;;4973983;28;20097;-86
2022/04/12 10:12:59;;;;;;;3.17;1.38;;;23.50;21.60;;;;;;4973319;28;20094;-88
2022/04/12 10:15:28;;;;;;;4.57;1.27;;;23.80;21.20;;;;;;4956547;28;20503;-87
2022/04/12 10:17:55;;;;;;;2.72;1.35;;;23.60;20.60;;;;;;4956555;28;20482;-87
2022/04/12 10:20:22;;;;;;;3.85;0.90;;;23.50;21.10;;;;;;4956694;28;20031;-88
2022/04/12 10:22:49;;;;;;;3.30;1.20;;;23.30;21.40;;;;;;4988942;28;20030;-87
2022/04/12 10:25:17;;;;;;;3.33;1.30;;;22.60;21.80;;;;;;4988654;28;20088;-87
2022/04/12 10:27:43;;;;;;;4.20;1.35;;;21.70;22.20;;;;;;4957469;28;20041;-88
2022/04/12 10:30:15;;;;;;;7.07;1.38;;;21.20;22.90;;;;;;4960027;28;20403;-87
2022/04/12 10:33:04;;;;;;;11.38;1.70;;;20.80;23.00;;;;;;4976977;28;20038;-88
2022/04/12 10:35:50;;;;;;;8.93;1.83;;;20.20;24.30;;;;;;4960008;28;20570;-86
2022/04/12 10:38:17;;;;;;;3.97;1.23;;;19.80;24.90;;;;;;4959485;28;20051;-87
2022/04/12 10:40:51;;;;;;;3.13;1.10;;;19.40;25.00;;;;;;4977423;28;20038;-86
2022/04/12 10:43:29;;;;;;;2.40;1.25;;;19.30;24.90;;;;;;4959745;28;20030;-86
2022/04/12 10:45:57;;;;;;;2.20;1.02;;;18.90;25.60;;;;;;4992228;28;20415;-88
2022/04/12 10:48:24;;;;;;;2.97;1.00;;;18.60;26.20;;;;;;4977286;28;20027;-88
2022/04/12 10:50:56;;;;;;;4.05;1.33;;;18.50;27.10;;;;;;4959494;28;20573;-87
2022/04/12 10:53:39;;;;;;;3.22;1.10;;;18.30;26.10;;;;;;4959625;28;20023;-87
2022/04/12 10:56:09;;;;;;;4.68;1.33;;;18.00;26.50;;;;;;4975487;28;20058;-86
2022/04/12 10:58:35;;;;;;;6.10;1.65;;;17.50;25.70;;;;;;4976542;28;20046;-86
2022/04/12 11:01:02;;;;;;;3.80;1.20;;;16.90;26.20;;;;;;4976856;28;20035;-86
2022/04/12 11:03:43;;;;;;;6.60;1.45;;;16.70;27.60;;;;;;4991814;28;20117;-87
2022/04/12 11:06:27;;;;;;;3.95;1.20;;;16.60;28.40;;;;;;4976523;28;20594;-86
2022/04/12 11:09:06;;;;;;;3.72;0.85;;;16.40;27.90;;;;;;4976481;28;20019;-87
2022/04/12 11:11:45;;;;;;;4.43;1.17;;;16.40;29.20;;;;;;4975656;28;20038;-85
2022/04/12 11:14:36;;;;;;;4.75;0.77;;;16.40;28.20;;;;;;4976755;28;20018;-87
2022/04/12 11:17:10;;;;;;;2.15;0.90;;;16.30;29.10;;;;;;4976576;28;20022;-86
2022/04/12 11:19:51;;;;;;;2.88;1.02;;;16.40;29.40;;;;;;4959421;28;20042;-86
2022/04/12 11:22:18;;;;;;;4.53;1.35;;;16.50;28.50;;;;;;4976197;28;20041;-87
2022/04/12 11:25:14;;;;;;;3.60;0.95;;;16.40;29.10;;;;;;4959041;28;20125;-86
2022/04/12 11:27:39;;;;;;;4.40;1.80;;;16.60;30.70;;;;;;4959508;28;20038;-86
2022/04/12 11:30:05;;;;;;;;;;;16.70;30.00;;;;;;4959996;28;20031;-87
2022/04/12 11:32:32;;;;;;;3.67;1.27;;;16.80;29.70;;;;;;4959373;28;20370;-86
2022/04/12 11:34:59;;;;;;;5.43;1.63;;;16.90;29.10;;;;;;4959066;28;20030;-87
2022/04/12 11:37:25;;;;;;;3.65;1.50;;;16.90;28.60;;;;;;4959369;28;20507;-87
2022/04/12 11:39:51;;;;;;;2.15;1.08;;;16.90;28.80;;;;;;4975123;28;20031;-86
2022/04/12 11:42:16;;;;;;;;;;;16.80;28.40;;;;;;4976336;28;20126;-86
2022/04/12 11:44:53;;;;;;;2.45;0.90;;;16.60;27.60;;;;;;4958391;28;20016;-87
2022/04/12 11:47:19;;;;;;;;;;;16.50;30.00;;;;;;4958909;28;20034;-86
2022/04/12 11:49:44;;;;;;;2.60;1.00;;;16.50;30.40;;;;;;4958628;28;20009;-85
2022/04/12 11:52:11;;;;;;;2.72;1.20;;;16.70;29.50;;;;;;4958596;28;20391;-86
2022/04/12 11:54:39;;;;;;;2.53;0.73;;;16.70;28.50;;;;;;4950582;28;20089;-87
2022/04/12 11:57:20;;;;;;;3.45;1.20;;;16.90;28.90;;;;;;4958514;28;20081;-86
2022/04/12 11:59:54;;;;;;;3.92;1.27;;;16.90;28.90;;;;;;4958177;28;20562;-85
2022/04/12 12:02:22;;;;;;;3.03;1.10;;;16.80;27.80;;;;;;4958212;28;20031;-86
2022/04/12 12:04:53;;;;;;;3.40;1.00;;;16.70;28.10;;;;;;4958217;28;20039;-86
2022/04/12 12:07:19;;;;;;;9.38;0.90;;;16.60;28.70;;;;;;4990652;28;20026;-86
2022/04/12 12:10:03;;;;;;;3.42;1.10;;;16.40;29.10;;;;;;4958216;28;20030;-86
2022/04/12 12:12:38;;;;;;;2.80;1.08;;;16.70;29.50;;;;;;4975432;28;20037;-84
2022/04/12 12:15:21;;;;;;;3.13;1.03;;;16.80;28.90;;;;;;4975491;28;20035;-85
2022/04/12 12:17:49;;;;;;;4.57;1.20;;;17.00;29.50;;;;;;4975248;28;20023;-86
2022/04/12 12:20:17;;;;;;;2.53;1.00;;;17.20;29.30;;;;;;4957991;28;20030;-86
2022/04/12 12:22:45;;;;;;;2.30;0.90;;;17.20;29.00;;;;;;4958112;28;20027;-86
2022/04/12 12:25:18;;;;;;;4.20;0.90;;;17.30;29.10;;;;;;4958686;28;20090;-87
2022/04/12 12:27:49;;;;;;;3.00;0.80;;;17.30;28.70;;;;;;4975309;28;20045;-86
2022/04/12 12:30:21;;;;;;;3.30;1.13;;;17.30;28.80;;;;;;4975949;28;20035;-86
2022/04/12 12:32:51;;;;;;;3.45;1.40;;;17.30;28.40;;;;;;4958154;28;20022;-86
2022/04/12 12:35:17;;;;;;;4.70;1.10;;;17.20;28.50;;;;;;4990466;28;20030;-87
2022/04/12 12:37:45;;;;;;;2.25;0.85;;;17.20;29.00;;;;;;4957781;28;20094;-86
2022/04/12 12:40:19;;;;;;;4.75;1.20;;;17.10;28.70;;;;;;4958082;28;20034;-87
2022/04/12 12:42:46;;;;;;;3.35;1.10;;;17.00;28.50;;;;;;4974078;28;20034;-86
2022/04/12 12:45:13;;;;;;;2.67;1.15;;;17.00;28.80;;;;;;4974597;28;20511;-85
2022/04/12 12:47:44;;;;;;;2.45;0.85;;;17.00;28.60;;;;;;4957538;28;20027;-86
2022/04/12 12:50:11;;;;;;;2.42;1.08;;;16.90;28.60;;;;;;4957379;28;20086;-86
2022/04/12 12:52:38;;;;;;;5.35;1.30;;;16.80;27.70;;;;;;4957183;28;20116;-85
2022/04/12 12:55:12;;;;;;;5.43;1.55;;;16.70;28.20;;;;;;4957660;28;20027;-87
2022/04/12 12:57:39;;;;;;;7.47;1.25;;;16.40;28.60;;;;;;4990251;28;20030;-87
2022/04/12 13:00:07;;;;;;;1.88;0.98;;;16.20;29.30;;;;;;4957422;28;20035;-86
2022/04/12 13:02:35;;;;;;;4.18;1.38;;;16.20;29.30;;;;;;4957743;28;20027;-87
2022/04/12 13:05:06;;;;;;;7.18;1.38;;;15.90;29.00;;;;;;4957437;28;20069;-86